^^
Grace C. Lehan Memorial Weather Station Historical Data
Daily Summary for February 25, 2021 Units:  Metric    English   Both
Daily Weekly Monthly Yearly
  High: Low: Average:
Temperature: 3.5 °C -7.6 °C -2.1 °C
Dew Point: -8.4 °C -14.3 °C -11.3 °C
Humidity: 62.2% 34% 50%
Wind Speed: 9.5km/h 0km/h 1.8km/h
Wind Gust: 24.1km/h - -
Wind- - WNW
Pressure: 1019.9 hPa 1016.5 hPa -
Precipitation: 0 mm    
 
 
Tabular Data for February 25, 2021
Time Temperature Dew Point Pressure Wind Wind Speed Wind Gust Humidity Rainfall Rate (Hourly) solar
00:04 -5.7 °C -13.6 °C 1017.8 hPa NNW 3.5 km/h 12.9 km/h 53.5% 0 mm 0 W/m2
00:09 -5.7 °C -13.7 °C 1017.8 hPa NNW 2.9 km/h 11.3 km/h 53.3% 0 mm 0 W/m2
00:14 -5.7 °C -13.7 °C 1017.8 hPa NNW 2.7 km/h 11.3 km/h 53.4% 0 mm 0 W/m2
00:19 -5.7 °C -13.6 °C 1017.8 hPa NNW 1.4 km/h 11.3 km/h 54% 0 mm 0 W/m2
00:24 -5.7 °C -13.6 °C 1017.8 hPa NNW 4.8 km/h 11.3 km/h 54% 0 mm 0 W/m2
00:29 -5.8 °C -13.6 °C 1017.8 hPa NNW 3.4 km/h 11.3 km/h 54% 0 mm 0 W/m2
00:34 -5.8 °C -13.7 °C 1017.8 hPa NNW 2.1 km/h 11.3 km/h 53.6% 0 mm 0 W/m2
00:39 -5.8 °C -13.6 °C 1017.8 hPa Calm   6.4 km/h 54% 0 mm 0 W/m2
00:44 -5.8 °C -13.6 °C 1017.8 hPa NNW 0.2 km/h 6.4 km/h 54% 0 mm 0 W/m2
00:49 -5.8 °C -13.7 °C 1017.8 hPa Calm   6.4 km/h 54% 0 mm 0 W/m2
00:54 -5.8 °C -13.7 °C 1017.8 hPa NNW 1 km/h 9.7 km/h 54% 0 mm 0 W/m2
00:59 -5.9 °C -13.7 °C 1017.5 hPa Calm   9.7 km/h 54% 0 mm 0 W/m2
01:04 -5.9 °C -13.7 °C 1017.5 hPa NNW 0.8 km/h 9.7 km/h 54% 0 mm 0 W/m2
01:09 -5.9 °C -13.7 °C 1017.5 hPa WNW 4.2 km/h 12.9 km/h 54.4% 0 mm 0 W/m2
01:14 -5.9 °C -13.7 °C 1017.5 hPa WNW 3.1 km/h 12.9 km/h 54% 0 mm 0 W/m2
01:19 -5.9 °C -13.8 °C 1017.5 hPa WNW 3.1 km/h 12.9 km/h 54% 0 mm 0 W/m2
01:24 -6 °C -13.8 °C 1017.8 hPa NW 3.4 km/h 12.9 km/h 54% 0 mm 0 W/m2
01:29 -6 °C -13.8 °C 1017.8 hPa NW 2.1 km/h 12.9 km/h 54% 0 mm 0 W/m2
01:34 -6 °C -13.8 °C 1017.8 hPa NW 4.8 km/h 12.9 km/h 54% 0 mm 0 W/m2
01:39 -6.1 °C -13.8 °C 1018.2 hPa WNW 2.3 km/h 11.3 km/h 54% 0 mm 0 W/m2
01:44 -6.1 °C -14 °C 1018.2 hPa WNW 5 km/h 11.3 km/h 53.3% 0 mm 0 W/m2
01:49 -6.1 °C -13.9 °C 1018.2 hPa WNW 3.1 km/h 11.3 km/h 53.7% 0 mm 0 W/m2
01:54 -6.1 °C -13.8 °C 1018.2 hPa Calm   11.3 km/h 54% 0 mm 0 W/m2
01:59 -6.1 °C -13.9 °C 1018.2 hPa Calm   11.3 km/h 54% 0 mm 0 W/m2
02:04 -6.2 °C -13.9 °C 1018.2 hPa WNW 4.2 km/h 11.3 km/h 54% 0 mm 0 W/m2
02:09 -6.2 °C -14 °C 1018.2 hPa NW 1 km/h 9.7 km/h 54% 0 mm 0 W/m2
02:14 -6.2 °C -14 °C 1018.2 hPa NW 1.6 km/h 9.7 km/h 54% 0 mm 0 W/m2
02:19 -6.3 °C -14.1 °C 1018.2 hPa NW 0.5 km/h 9.7 km/h 54% 0 mm 0 W/m2
02:24 -6.3 °C -14.1 °C 1018.2 hPa Calm   9.7 km/h 54% 0 mm 0 W/m2
02:29 -6.3 °C -14.1 °C 1018.2 hPa NW 1.8 km/h 9.7 km/h 54% 0 mm 0 W/m2
02:34 -6.3 °C -14.1 °C 1018.2 hPa NW 2.4 km/h 9.7 km/h 54% 0 mm 0 W/m2
02:39 -6.3 °C -14.1 °C 1018.2 hPa NW 0.3 km/h 6.4 km/h 54% 0 mm 0 W/m2
02:44 -6.3 °C -14.1 °C 1018.2 hPa NW 1.9 km/h 8 km/h 54% 0 mm 0 W/m2
02:49 -6.3 °C -14.1 °C 1018.2 hPa NW 3.5 km/h 11.3 km/h 54% 0 mm 0 W/m2
02:54 -6.3 °C -14.1 °C 1017.8 hPa WNW 3.9 km/h 11.3 km/h 54% 0 mm 0 W/m2
02:59 -6.3 °C -14.2 °C 1017.8 hPa WNW 1.4 km/h 11.3 km/h 53.8% 0 mm 0 W/m2
03:04 -6.3 °C -14.1 °C 1017.8 hPa Calm   11.3 km/h 54% 0 mm 0 W/m2
03:09 -6.3 °C -14.1 °C 1017.8 hPa Calm     54% 0 mm 0 W/m2
03:14 -6.3 °C -14.2 °C 1017.8 hPa WNW 0.2 km/h 1.6 km/h 53.5% 0 mm 0 W/m2
03:19 -6.4 °C -14.2 °C 1017.8 hPa WNW 0.5 km/h 4.8 km/h 54% 0 mm 0 W/m2
03:24 -6.4 °C -14.2 °C 1017.8 hPa NW 2.1 km/h 8 km/h 54% 0 mm 0 W/m2
03:29 -6.4 °C -14.2 °C 1017.8 hPa NW 1.6 km/h 8 km/h 54% 0 mm 0 W/m2
03:34 -6.4 °C -14.2 °C 1017.8 hPa Calm   8 km/h 54% 0 mm 0 W/m2
03:39 -6.4 °C -14.2 °C 1017.8 hPa Calm     54% 0 mm 0 W/m2
03:44 -6.5 °C -14.3 °C 1018.2 hPa NW 0.5 km/h 4.8 km/h 54% 0 mm 0 W/m2
03:49 -6.6 °C -14.3 °C 1017.8 hPa Calm   4.8 km/h 54% 0 mm 0 W/m2
03:54 -6.6 °C -14.3 °C 1017.8 hPa NW 2.1 km/h 8 km/h 54% 0 mm 0 W/m2
03:59 -6.6 °C -14.3 °C 1018.2 hPa Calm   8 km/h 54.3% 0 mm 0 W/m2
04:04 -6.7 °C -14.2 °C 1017.8 hPa NW 1.3 km/h 3.2 km/h 55% 0 mm 0 W/m2
04:09 -6.7 °C -14.2 °C 1017.8 hPa NW 0.5 km/h 6.4 km/h 55% 0 mm 0 W/m2
04:14 -6.7 °C -14.3 °C 1018.2 hPa NW 2.9 km/h 9.7 km/h 54.7% 0 mm 0 W/m2
04:19 -6.7 °C -14.3 °C 1018.2 hPa NW 1.3 km/h 9.7 km/h 54.5% 0 mm 0 W/m2
04:24 -6.7 °C -14.3 °C 1018.2 hPa WNW 4.8 km/h 17.7 km/h 54.6% 0 mm 0 W/m2
04:29 -6.6 °C -14.3 °C 1018.2 hPa NW 7.1 km/h 19.3 km/h 54.2% 0 mm 0 W/m2
04:34 -6.6 °C -14.3 °C 1018.2 hPa NW 7.9 km/h 19.3 km/h 54% 0 mm 0 W/m2
04:39 -6.5 °C -14.3 °C 1018.2 hPa NW 6.4 km/h 16.1 km/h 54% 0 mm 0 W/m2
04:44 -6.4 °C -14.2 °C 1018.2 hPa NW 7.1 km/h 16.1 km/h 54% 0 mm 0 W/m2
04:49 -6.4 °C -14.2 °C 1018.2 hPa NW 8.9 km/h 24.1 km/h 54% 0 mm 0 W/m2
04:54 -6.4 °C -14.2 °C 1018.2 hPa NW 7.2 km/h 24.1 km/h 54% 0 mm 0 W/m2
04:59 -6.4 °C -14.2 °C 1018.2 hPa NW 7.2 km/h 24.1 km/h 54% 0 mm 0 W/m2
05:04 -6.4 °C -14.2 °C 1018.2 hPa NW 9.5 km/h 24.1 km/h 54% 0 mm 0 W/m2
05:09 -6.4 °C -14.2 °C 1018.2 hPa NW 7.4 km/h 19.3 km/h 54% 0 mm 0 W/m2
05:14 -6.4 °C -14.3 °C 1018.5 hPa NW 6.1 km/h 19.3 km/h 53.2% 0 mm 0 W/m2
05:19 -6.4 °C -14.2 °C 1018.5 hPa NW 6.6 km/h 19.3 km/h 54% 0 mm 0 W/m2
05:24 -6.4 °C -14.2 °C 1018.5 hPa NW 5.1 km/h 19.3 km/h 54% 0 mm 0 W/m2
05:29 -6.4 °C -14.2 °C 1018.5 hPa NW 5.1 km/h 19.3 km/h 54% 0 mm 0 W/m2
05:34 -6.4 °C -14.2 °C 1018.5 hPa NW 6.3 km/h 19.3 km/h 54% 0 mm 0 W/m2
05:39 -6.5 °C -14.3 °C 1018.5 hPa NW 6.6 km/h 17.7 km/h 54% 0 mm 0 W/m2
05:44 -6.5 °C -14.3 °C 1018.5 hPa NNW 5 km/h 17.7 km/h 54% 0 mm 0 W/m2
05:49 -6.5 °C -14.1 °C 1018.5 hPa NW 4 km/h 17.7 km/h 55% 0 mm 0 W/m2
05:54 -6.6 °C -14.1 °C 1018.5 hPa NNW 2.1 km/h 17.7 km/h 55% 0 mm 0 W/m2
05:59 -6.6 °C -14 °C 1018.8 hPa Calm   17.7 km/h 55.4% 0 mm 0 W/m2
06:04 -6.6 °C -14.1 °C 1018.8 hPa Calm   17.7 km/h 55.4% 0 mm 0 W/m2
06:09 -6.7 °C -14.2 °C 1018.8 hPa Calm     55% 0 mm 0 W/m2
06:14 -6.7 °C -14.1 °C 1018.8 hPa Calm     56% 0 mm 0 W/m2
06:19 -6.8 °C -14.1 °C 1018.8 hPa Calm     56% 0 mm 0 W/m2
06:24 -6.9 °C -14 °C 1018.8 hPa Calm     56.9% 0 mm 0 W/m2
06:29 -7 °C -14.1 °C 1018.8 hPa Calm     57% 0 mm 0 W/m2
06:34 -7.1 °C -14.1 °C 1018.8 hPa Calm     57% 0 mm 0 W/m2
06:39 -7.1 °C -14.2 °C 1018.8 hPa Calm     57% 0 mm 0 W/m2
06:44 -7.2 °C -14.1 °C 1019.2 hPa Calm     57.9% 0 mm 0 W/m2
06:49 -7.2 °C -14.1 °C 1019.2 hPa Calm     58% 0 mm 0 W/m2
06:54 -7.3 °C -14.2 °C 1019.2 hPa Calm     58% 0 mm 0 W/m2
06:59 -7.3 °C -14.2 °C 1018.8 hPa Calm     58.2% 0 mm 0 W/m2
07:04 -7.4 °C -14 °C 1019.2 hPa Calm     59% 0 mm 0 W/m2
07:09 -7.4 °C -14 °C 1019.2 hPa Calm     59.3% 0 mm 0 W/m2
07:14 -7.5 °C -13.7 °C 1019.2 hPa Calm     60.9% 0 mm 5 W/m2
07:19 -7.6 °C -13.7 °C 1019.5 hPa Calm     61.3% 0 mm 7 W/m2
07:24 -7.6 °C -13.7 °C 1019.9 hPa Calm     61.3% 0 mm 12 W/m2
07:29 -7.6 °C -13.8 °C 1019.5 hPa Calm     61% 0 mm 16 W/m2
07:34 -7.5 °C -13.6 °C 1019.5 hPa Calm     61.7% 0 mm 25 W/m2
07:39 -7.4 °C -13.4 °C 1019.5 hPa Calm     62% 0 mm 35 W/m2
07:44 -7.3 °C -13.3 °C 1019.5 hPa Calm     62.2% 0 mm 33 W/m2
07:49 -7.1 °C -13.2 °C 1019.9 hPa Calm     62% 0 mm 40 W/m2
07:54 -6.9 °C -12.9 °C 1019.5 hPa Calm     62% 0 mm 30 W/m2
07:59 -6.7 °C -12.8 °C 1019.5 hPa Calm     61.8% 0 mm 58 W/m2
08:00 -6.5 °C -12.8 °C 1019.2 hPa Calm     61% 0 mm 58 W/m2
08:09 -6.1 °C -12.6 °C 1019.5 hPa Calm     60.2% 0 mm 60 W/m2
08:14 -5.8 °C -12.6 °C 1019.5 hPa Calm     59% 0 mm 81 W/m2
08:19 -5.6 °C -12.4 °C 1019.2 hPa Calm     58.6% 0 mm 44 W/m2
08:24 -5.3 °C -12.1 °C 1019.2 hPa Calm     58.6% 0 mm 107 W/m2
08:29 -5 °C -12.2 °C 1019.2 hPa Calm     57.1% 0 mm 151 W/m2
08:34 -4.7 °C -11.9 °C 1019.2 hPa Calm     56.8% 0 mm 151 W/m2
08:39 -4.3 °C -11.9 °C 1019.2 hPa Calm     55.5% 0 mm 155 W/m2
08:44 -4.1 °C -11.9 °C 1018.8 hPa Calm     54.4% 0 mm 81 W/m2
08:49 -4.1 °C -12.1 °C 1019.2 hPa Calm     53.3% 0 mm 128 W/m2
08:54 -4 °C -12.1 °C 1018.8 hPa Calm     53.2% 0 mm 181 W/m2
08:59 -3.8 °C -11.9 °C 1019.2 hPa Calm     53.4% 0 mm 186 W/m2
09:04 -3.6 °C -11.6 °C 1019.2 hPa Calm     53.8% 0 mm 137 W/m2
09:09 -3.2 °C -11.4 °C 1019.5 hPa NNW 1.3 km/h 6.4 km/h 52.8% 0 mm 200 W/m2
09:14 -3.1 °C -11.6 °C 1019.2 hPa NNW 1.3 km/h 9.7 km/h 52% 0 mm 225 W/m2
09:19 -3.1 °C -11.5 °C 1019.5 hPa NNW 0.6 km/h 9.7 km/h 52% 0 mm 295 W/m2
09:24 -2.9 °C -11.3 °C 1019.5 hPa NNW 1.4 km/h 9.7 km/h 52.3% 0 mm 262 W/m2
09:29 -2.8 °C -11.5 °C 1019.2 hPa NNW 1.6 km/h 9.7 km/h 51% 0 mm 301 W/m2
09:34 -2.7 °C -11.6 °C 1019.2 hPa Calm   9.7 km/h 50.4% 0 mm 301 W/m2
09:39 -2.4 °C -11.4 °C 1019.2 hPa NNW 0.5 km/h 4.8 km/h 50.3% 0 mm 186 W/m2
09:44 -2.3 °C -11.3 °C 1019.5 hPa NNW 0.3 km/h 4.8 km/h 50% 0 mm 183 W/m2
09:49 -2.3 °C -11.3 °C 1019.9 hPa Calm   4.8 km/h 49.7% 0 mm 271 W/m2
09:54 -2.2 °C -11.3 °C 1019.5 hPa Calm   4.8 km/h 49.7% 0 mm 156 W/m2
09:59 -2.2 °C -11.4 °C 1019.5 hPa NNW 0.2 km/h 4.8 km/h 49.4% 0 mm 142 W/m2
10:04 -2.1 °C -11.3 °C 1019.5 hPa Calm   4.8 km/h 49.4% 0 mm 127 W/m2
10:09 -2.1 °C -11.4 °C 1019.2 hPa NNW 0.6 km/h 1.6 km/h 48.8% 0 mm 127 W/m2
10:14 -1.9 °C -11.2 °C 1019.2 hPa NNW 0.2 km/h 1.6 km/h 49.2% 0 mm 171 W/m2
10:19 -1.7 °C -11.2 °C 1019.2 hPa NNW 0.5 km/h 4.8 km/h 48.5% 0 mm 213 W/m2
10:24 -1.4 °C -11 °C 1019.2 hPa North 1.3 km/h 8 km/h 48% 0 mm 269 W/m2
10:29 -1.1 °C -11.1 °C 1019.2 hPa Calm   8 km/h 46.5% 0 mm 403 W/m2
10:34 -0.8 °C -11 °C 1018.8 hPa North 0.3 km/h 8 km/h 46% 0 mm 390 W/m2
10:39 -0.4 °C -10.7 °C 1018.8 hPa North 1.1 km/h 8 km/h 46% 0 mm 315 W/m2
10:44 0.1 °C -10.3 °C 1018.5 hPa NNW 2.3 km/h 12.9 km/h 45.3% 0 mm 366 W/m2
10:49 0.6 °C -10.2 °C 1018.8 hPa NNW 1 km/h 12.9 km/h 44.4% 0 mm 471 W/m2
10:54 1.2 °C -10 °C 1018.8 hPa North 0.5 km/h 12.9 km/h 42.9% 0 mm 520 W/m2
10:59 1.7 °C -10.1 °C 1018.8 hPa North 1.1 km/h 12.9 km/h 41.3% 0 mm 529 W/m2
11:04 1.8 °C -10.4 °C 1018.5 hPa NNE 3.2 km/h 12.9 km/h 39.7% 0 mm 533 W/m2
11:09 1.9 °C -10.4 °C 1018.5 hPa NE 1.8 km/h 9.7 km/h 39.6% 0 mm 455 W/m2
11:14 2.1 °C -10.6 °C 1018.2 hPa NE 3.1 km/h 9.7 km/h 38.8% 0 mm 127 W/m2
11:19 1.9 °C -11.1 °C 1018.2 hPa ENE 2.1 km/h 9.7 km/h 37.5% 0 mm 171 W/m2
11:24 1.6 °C -11.1 °C 1018.2 hPa ENE 1.3 km/h 11.3 km/h 38.5% 0 mm 304 W/m2
11:29 1.3 °C -11.1 °C 1017.8 hPa ENE 1.4 km/h 11.3 km/h 39% 0 mm 355 W/m2
11:34 1.1 °C -11.2 °C 1017.8 hPa Calm   11.3 km/h 39.4% 0 mm 360 W/m2
11:39 1 °C -11.2 °C 1017.8 hPa ENE 0.3 km/h 6.4 km/h 39.6% 0 mm 475 W/m2
11:44 1 °C -11.1 °C 1017.8 hPa NNE 2.3 km/h 9.7 km/h 40% 0 mm 475 W/m2
11:49 1.1 °C -11.2 °C 1017.8 hPa East 1 km/h 9.7 km/h 39.6% 0 mm 237 W/m2
11:54 0.9 °C -11.2 °C 1017.5 hPa NE 1.8 km/h 9.7 km/h 39.9% 0 mm 250 W/m2
11:59 1 °C -11.1 °C 1017.5 hPa NE 0.6 km/h 9.7 km/h 40.1% 0 mm 158 W/m2
12:09 1 °C -10.8 °C 1017.5 hPa NE 0.6 km/h 3.2 km/h 40.7% 0 mm 515 W/m2
12:14 1.3 °C -10.6 °C 1017.5 hPa NE 1 km/h 6.4 km/h 40.7% 0 mm 515 W/m2
12:19 1.7 °C -10.8 °C 1017.5 hPa NE 0.6 km/h 6.4 km/h 38.8% 0 mm 311 W/m2
12:24 1.7 °C -10.9 °C 1017.2 hPa NE 0.6 km/h 6.4 km/h 38.5% 0 mm 338 W/m2
12:29 1.8 °C -10.7 °C 1017.2 hPa NE 1.3 km/h 6.4 km/h 39% 0 mm 213 W/m2
12:34 1.9 °C -10.6 °C 1017.2 hPa North 1.1 km/h 6.4 km/h 39% 0 mm 141 W/m2
12:39 2.1 °C -10.8 °C 1017.2 hPa ENE 3.1 km/h 11.3 km/h 37.7% 0 mm 120 W/m2
12:44 2.2 °C -10.8 °C 1017.2 hPa NE 0.8 km/h 11.3 km/h 37.7% 0 mm 311 W/m2
12:49 2.3 °C -10.6 °C 1017.2 hPa North 3.1 km/h 11.3 km/h 38% 0 mm 311 W/m2
12:54 2.6 °C -10.6 °C 1017.2 hPa NNW 1.6 km/h 11.3 km/h 37.2% 0 mm 213 W/m2
12:59 2.7 °C -10.7 °C 1017.2 hPa NNW 1.1 km/h 11.3 km/h 36.4% 0 mm 248 W/m2
13:04 2.8 °C -10.7 °C 1017.2 hPa Calm   11.3 km/h 36.3% 0 mm 241 W/m2
13:09 2.9 °C -10.7 °C 1017.2 hPa NNW 1.3 km/h 14.5 km/h 36% 0 mm 367 W/m2
13:14 3.2 °C -10.7 °C 1017.2 hPa WNW 5.5 km/h 14.5 km/h 35.5% 0 mm 160 W/m2
13:19 3.3 °C -10.4 °C 1016.8 hPa NE 1.4 km/h 14.5 km/h 35.8% 0 mm 309 W/m2
13:24 3.3 °C -10.7 °C 1016.8 hPa NNE 0.8 km/h 14.5 km/h 35% 0 mm 341 W/m2
13:29 3.4 °C -10.7 °C 1016.8 hPa NE 2.4 km/h 14.5 km/h 34.9% 0 mm 274 W/m2
13:34 3.3 °C -10.9 °C 1016.8 hPa NE 1.3 km/h 14.5 km/h 34.5% 0 mm 202 W/m2
13:39 3.3 °C -10.7 °C 1016.8 hPa Calm   8 km/h 35% 0 mm 137 W/m2
13:44 3.3 °C -10.7 °C 1016.8 hPa NE 1.1 km/h 8 km/h 35% 0 mm 227 W/m2
13:49 3.3 °C -10.7 °C 1016.8 hPa NNW 1.3 km/h 8 km/h 35% 0 mm 200 W/m2
13:54 3.4 °C -10.6 °C 1016.8 hPa NW 0.3 km/h 8 km/h 35% 0 mm 174 W/m2
13:59 3.4 °C -10.8 °C 1016.8 hPa NW 0.3 km/h 8 km/h 34.3% 0 mm 151 W/m2
14:04 3.5 °C -10.7 °C 1016.5 hPa NW 3.1 km/h 12.9 km/h 34.6% 0 mm 171 W/m2
14:09 3.4 °C -10.9 °C 1016.5 hPa NW 2.4 km/h 14.5 km/h 34% 0 mm 127 W/m2
14:14 3.3 °C -11 °C 1016.5 hPa WNW 7.4 km/h 19.3 km/h 34% 0 mm 132 W/m2
14:19 3.3 °C -10.9 °C 1016.5 hPa WNW 4 km/h 19.3 km/h 34.5% 0 mm 135 W/m2
14:24 3.2 °C -10.8 °C 1016.5 hPa NW 5.6 km/h 19.3 km/h 35% 0 mm 90 W/m2
14:29 3.1 °C -10.9 °C 1016.5 hPa WNW 6.3 km/h 19.3 km/h 35% 0 mm 128 W/m2
14:34 2.9 °C -10.7 °C 1016.5 hPa WNW 6.4 km/h 19.3 km/h 35.8% 0 mm 135 W/m2
14:39 2.9 °C -10.7 °C 1016.8 hPa WNW 6.3 km/h 16.1 km/h 36% 0 mm 118 W/m2
14:44 2.9 °C -10.7 °C 1017.2 hPa WNW 7.7 km/h 17.7 km/h 36% 0 mm 146 W/m2
14:49 2.9 °C -10.6 °C 1016.8 hPa NW 4.3 km/h 17.7 km/h 36.2% 0 mm 218 W/m2
14:54 3 °C -10.6 °C 1016.8 hPa WNW 3.5 km/h 17.7 km/h 36.2% 0 mm 218 W/m2
14:59 3.1 °C -10.5 °C 1016.8 hPa WNW 7.4 km/h 19.3 km/h 36.2% 0 mm 153 W/m2
15:04 3.1 °C -10.4 °C 1017.2 hPa WNW 2.7 km/h 19.3 km/h 36.2% 0 mm 79 W/m2
15:09 3.2 °C -10.4 °C 1017.2 hPa NW 4.8 km/h 17.7 km/h 36.1% 0 mm 76 W/m2
15:14 3.1 °C -10.5 °C 1017.5 hPa NNW 2.6 km/h 17.7 km/h 36% 0 mm 63 W/m2
15:19 3 °C -10.5 °C 1017.2 hPa NW 5.1 km/h 17.7 km/h 36.3% 0 mm 44 W/m2
15:24 2.9 °C -10.3 °C 1017.2 hPa NW 5 km/h 17.7 km/h 37% 0 mm 33 W/m2
15:29 2.9 °C -10.4 °C 1017.2 hPa WNW 8.2 km/h 17.7 km/h 37% 0 mm 32 W/m2
15:34 2.8 °C -10.4 °C 1017.2 hPa WNW 6.1 km/h 17.7 km/h 37% 0 mm 33 W/m2
15:39 2.7 °C -10.4 °C 1017.2 hPa NW 2.6 km/h 17.7 km/h 37.3% 0 mm 32 W/m2
15:44 2.7 °C -10.3 °C 1017.2 hPa WNW 2.3 km/h 17.7 km/h 38% 0 mm 30 W/m2
15:49 2.6 °C -10.3 °C 1017.2 hPa WNW 4.8 km/h 17.7 km/h 38% 0 mm 26 W/m2
15:54 2.4 °C -10.3 °C 1017.2 hPa WNW 3.1 km/h 17.7 km/h 38.4% 0 mm 19 W/m2
15:59 2.3 °C -10.2 °C 1017.5 hPa WNW 0.3 km/h 17.7 km/h 39% 0 mm 18 W/m2
16:09 2.2 °C -10.1 °C 1017.5 hPa NW 1.1 km/h 11.3 km/h 40% 0 mm 16 W/m2
16:14 2.1 °C -9.9 °C 1017.5 hPa NW 2.6 km/h 11.3 km/h 40.8% 0 mm 12 W/m2
16:19 1.9 °C -9.9 °C 1017.2 hPa NNW 1.8 km/h 11.3 km/h 41.2% 0 mm 11 W/m2
16:24 1.8 °C -9.8 °C 1017.2 hPa NNW 1.6 km/h 11.3 km/h 42% 0 mm 9 W/m2
16:29 1.7 °C -9.8 °C 1017.2 hPa NW 1.6 km/h 11.3 km/h 42.2% 0 mm 9 W/m2
16:34 1.6 °C -9.7 °C 1017.2 hPa NW 1.9 km/h 11.3 km/h 43% 0 mm 7 W/m2
16:39 1.4 °C -9.7 °C 1016.8 hPa NW 1.9 km/h 12.9 km/h 43.2% 0 mm 9 W/m2
16:44 1.3 °C -9.6 °C 1016.8 hPa NNW 0.6 km/h 12.9 km/h 44% 0 mm 9 W/m2
16:49 1.2 °C -9.6 °C 1017.2 hPa NNW 0.6 km/h 12.9 km/h 44.3% 0 mm 5 W/m2
16:54 1.2 °C -9.4 °C 1017.2 hPa NNW 0.2 km/h 12.9 km/h 45% 0 mm 0 W/m2
16:59 1 °C -9.3 °C 1017.2 hPa NW 2.4 km/h 12.9 km/h 45.8% 0 mm 0 W/m2
17:04 0.9 °C -9.4 °C 1017.2 hPa NW 0.8 km/h 12.9 km/h 46% 0 mm 0 W/m2
17:09 0.8 °C -9.4 °C 1017.2 hPa NW 2.9 km/h 11.3 km/h 46.4% 0 mm 0 W/m2
17:14 0.7 °C -9.3 °C 1017.2 hPa NW 3.5 km/h 11.3 km/h 47% 0 mm 0 W/m2
17:19 0.7 °C -9.4 °C 1017.2 hPa NW 2.1 km/h 11.3 km/h 47% 0 mm 0 W/m2
17:24 0.6 °C -9.3 °C 1016.8 hPa NW 1.3 km/h 11.3 km/h 47.4% 0 mm 0 W/m2
17:29 0.5 °C -9.2 °C 1017.2 hPa NW 2.3 km/h 11.3 km/h 47.9% 0 mm 0 W/m2
17:34 0.4 °C -9.3 °C 1017.2 hPa NW 1 km/h 11.3 km/h 48% 0 mm 0 W/m2
17:39 0.4 °C -9.3 °C 1017.2 hPa NW 1 km/h 9.7 km/h 48% 0 mm 0 W/m2
17:44 0.3 °C -9.3 °C 1017.5 hPa NW 1.6 km/h 9.7 km/h 48.4% 0 mm 0 W/m2
17:49 0.3 °C -9.2 °C 1017.5 hPa NW 1.8 km/h 9.7 km/h 49% 0 mm 0 W/m2
17:54 0.2 °C -9.2 °C 1017.5 hPa NW 1.8 km/h 9.7 km/h 49% 0 mm 0 W/m2
17:59 0.2 °C -9.2 °C 1017.8 hPa NW 0.8 km/h 9.7 km/h 49.3% 0 mm 0 W/m2
18:04 0.2 °C -9 °C 1017.8 hPa NW 0.5 km/h 9.7 km/h 50% 0 mm 0 W/m2
18:09 0.1 °C -9.1 °C 1017.8 hPa NW 1.1 km/h 6.4 km/h 50% 0 mm 0 W/m2
18:14 0.1 °C -9.1 °C 1017.8 hPa NW 0.5 km/h 6.4 km/h 50% 0 mm 0 W/m2
18:19 0 °C -9.2 °C 1017.8 hPa NW 0.8 km/h 6.4 km/h 50% 0 mm 0 W/m2
18:24 -0.1 °C -9 °C 1017.8 hPa NW 1.1 km/h 8 km/h 51% 0 mm 0 W/m2
18:29 -0.1 °C -9.1 °C 1017.8 hPa NW 0.8 km/h 8 km/h 51% 0 mm 0 W/m2
18:34 -0.2 °C -9.1 °C 1017.8 hPa NW 0.3 km/h 8 km/h 51% 0 mm 0 W/m2
18:39 -0.2 °C -9.1 °C 1018.2 hPa NW 0.6 km/h 4.8 km/h 51% 0 mm 0 W/m2
18:44 -0.3 °C -9.2 °C 1018.2 hPa NW 1.1 km/h 8 km/h 51% 0 mm 0 W/m2
18:49 -0.3 °C -9.1 °C 1018.5 hPa NW 0.6 km/h 8 km/h 51.7% 0 mm 0 W/m2
18:54 -0.3 °C -9 °C 1018.5 hPa NW 1 km/h 8 km/h 52% 0 mm 0 W/m2
18:59 -0.3 °C -9 °C 1018.8 hPa NW 3.2 km/h 9.7 km/h 52% 0 mm 0 W/m2
19:04 -0.3 °C -9 °C 1018.8 hPa NW 2.1 km/h 11.3 km/h 52% 0 mm 0 W/m2
19:09 -0.3 °C -9 °C 1018.8 hPa WNW 3.7 km/h 11.3 km/h 52% 0 mm 0 W/m2
19:14 -0.4 °C -8.8 °C 1018.5 hPa WNW 4 km/h 16.1 km/h 52.8% 0 mm 0 W/m2
19:19 -0.4 °C -8.8 °C 1018.5 hPa WNW 1 km/h 16.1 km/h 53% 0 mm 0 W/m2
19:24 -0.4 °C -8.8 °C 1018.8 hPa NW 1.1 km/h 16.1 km/h 53% 0 mm 0 W/m2
19:29 -0.4 °C -8.9 °C 1018.8 hPa WNW 1.3 km/h 16.1 km/h 53% 0 mm 0 W/m2
19:34 -0.5 °C -8.9 °C 1018.5 hPa NW 0.5 km/h 16.1 km/h 53% 0 mm 0 W/m2
19:39 -0.5 °C -8.9 °C 1018.5 hPa NW 0.5 km/h 8 km/h 53% 0 mm 0 W/m2
19:44 -0.6 °C -8.9 °C 1018.5 hPa NW 0.8 km/h 8 km/h 53% 0 mm 0 W/m2
19:49 -0.6 °C -8.8 °C 1018.5 hPa NW 0.6 km/h 8 km/h 53.7% 0 mm 0 W/m2
19:54 -0.6 °C -8.8 °C 1018.5 hPa NW 0.6 km/h 8 km/h 54% 0 mm 0 W/m2
19:59 -0.7 °C -8.8 °C 1018.5 hPa Calm   8 km/h 54% 0 mm 0 W/m2
20:09 -0.7 °C -8.8 °C 1018.5 hPa NW 0.6 km/h 6.4 km/h 54% 0 mm 0 W/m2
20:14 -0.7 °C -8.9 °C 1018.5 hPa NNW 0.5 km/h 6.4 km/h 54% 0 mm 0 W/m2
20:19 -0.7 °C -8.7 °C 1018.5 hPa NNW 0.3 km/h 6.4 km/h 54.8% 0 mm 0 W/m2
20:24 -0.7 °C -8.6 °C 1018.5 hPa NNW 0.2 km/h 6.4 km/h 55% 0 mm 0 W/m2
20:29 -0.8 °C -8.7 °C 1018.5 hPa NNW 1.4 km/h 11.3 km/h 55% 0 mm 0 W/m2
20:34 -0.8 °C -8.7 °C 1018.5 hPa NNW 1 km/h 11.3 km/h 55% 0 mm 0 W/m2
20:39 -0.8 °C -8.7 °C 1018.5 hPa NNW 3.1 km/h 12.9 km/h 55% 0 mm 0 W/m2
20:44 -0.8 °C -8.7 °C 1018.5 hPa NNW 1.6 km/h 12.9 km/h 55% 0 mm 0 W/m2
20:49 -0.8 °C -8.7 °C 1018.5 hPa NNW 3.5 km/h 12.9 km/h 55% 0 mm 0 W/m2
20:54 -0.8 °C -8.7 °C 1018.8 hPa NNW 1.9 km/h 12.9 km/h 55% 0 mm 0 W/m2
20:59 -0.8 °C -8.7 °C 1018.8 hPa NNW 0.6 km/h 12.9 km/h 55% 0 mm 0 W/m2
21:04 -0.8 °C -8.7 °C 1018.8 hPa NNW 3.5 km/h 16.1 km/h 55% 0 mm 0 W/m2
21:09 -0.8 °C -8.7 °C 1018.8 hPa NNW 1.3 km/h 16.1 km/h 55% 0 mm 0 W/m2
21:14 -0.8 °C -8.7 °C 1018.8 hPa NNW 1.8 km/h 16.1 km/h 55% 0 mm 0 W/m2
21:19 -0.8 °C -8.7 °C 1018.8 hPa NNW 2.9 km/h 16.1 km/h 55% 0 mm 0 W/m2
21:24 -0.8 °C -8.7 °C 1018.5 hPa North 2.7 km/h 17.7 km/h 55.1% 0 mm 0 W/m2
21:29 -0.9 °C -8.6 °C 1018.5 hPa North 1.1 km/h 17.7 km/h 55.6% 0 mm 0 W/m2
21:34 -0.9 °C -8.6 °C 1018.5 hPa NNW 0.5 km/h 17.7 km/h 56% 0 mm 0 W/m2
21:39 -0.9 °C -8.6 °C 1018.8 hPa NNW 1.3 km/h 9.7 km/h 56% 0 mm 0 W/m2
21:44 -0.9 °C -8.6 °C 1018.8 hPa NNW 1.3 km/h 9.7 km/h 56% 0 mm 0 W/m2
21:49 -0.9 °C -8.6 °C 1018.8 hPa NNW 0.5 km/h 9.7 km/h 56% 0 mm 0 W/m2
21:54 -0.9 °C -8.6 °C 1019.2 hPa Calm   9.7 km/h 56% 0 mm 0 W/m2
21:59 -0.9 °C -8.6 °C 1019.2 hPa NNW 0.6 km/h 9.7 km/h 56.3% 0 mm 0 W/m2
22:04 -1 °C -8.6 °C 1019.2 hPa NNW 1.8 km/h 9.7 km/h 56.4% 0 mm 0 W/m2
22:09 -1 °C -8.7 °C 1019.2 hPa NNW 2.7 km/h 9.7 km/h 56% 0 mm 0 W/m2
22:14 -1 °C -8.7 °C 1019.2 hPa NNE 1.8 km/h 9.7 km/h 56% 0 mm 0 W/m2
22:19 -0.9 °C -8.6 °C 1019.2 hPa North 0.5 km/h 9.7 km/h 56% 0 mm 0 W/m2
22:24 -0.9 °C -8.6 °C 1019.2 hPa North 0.3 km/h 9.7 km/h 56.1% 0 mm 0 W/m2
22:29 -0.9 °C -8.6 °C 1018.8 hPa Calm   9.7 km/h 56% 0 mm 0 W/m2
22:34 -0.9 °C -8.4 °C 1018.8 hPa North 0.5 km/h 9.7 km/h 56.9% 0 mm 0 W/m2
22:39 -0.9 °C -8.4 °C 1018.8 hPa North 0.6 km/h 6.4 km/h 56.9% 0 mm 0 W/m2
22:44 -0.9 °C -8.4 °C 1018.8 hPa North 1 km/h 9.7 km/h 56.7% 0 mm 0 W/m2
22:49 -0.9 °C -8.4 °C 1019.2 hPa North 0.3 km/h 9.7 km/h 56.7% 0 mm 0 W/m2
22:54 -0.9 °C -8.6 °C 1019.2 hPa North 0.5 km/h 9.7 km/h 56.3% 0 mm 0 W/m2
22:59 -0.9 °C -8.6 °C 1019.2 hPa North 0.3 km/h 9.7 km/h 56.2% 0 mm 0 W/m2
23:00 -0.9 °C -8.6 °C 1018.8 hPa Calm   9.7 km/h 56% 0 mm 0 W/m2
23:09 -0.9 °C -8.6 °C 1019.2 hPa North 0.6 km/h 6.4 km/h 56% 0 mm 0 W/m2
23:14 -0.9 °C -8.6 °C 1018.8 hPa North 0.6 km/h 8 km/h 56.3% 0 mm 0 W/m2
23:19 -0.9 °C -8.4 °C 1018.8 hPa North 0.2 km/h 8 km/h 56.8% 0 mm 0 W/m2
23:24 -0.9 °C -8.4 °C 1018.8 hPa North 0.3 km/h 8 km/h 56.7% 0 mm 0 W/m2
23:29 -0.9 °C -8.6 °C 1018.8 hPa NNW 1.8 km/h 14.5 km/h 56.1% 0 mm 0 W/m2
23:34 -0.9 °C -8.4 °C 1018.8 hPa NNW 0.5 km/h 14.5 km/h 56.9% 0 mm 0 W/m2
23:39 -0.9 °C -8.4 °C 1018.8 hPa NNW 0.3 km/h 8 km/h 57% 0 mm 0 W/m2
23:44 -0.9 °C -8.4 °C 1018.5 hPa Calm   8 km/h 56.7% 0 mm 0 W/m2
23:49 -0.9 °C -8.4 °C 1018.5 hPa North 0.2 km/h 8 km/h 56.9% 0 mm 0 W/m2
23:54 -0.9 °C -8.4 °C 1018.2 hPa Calm   8 km/h 57% 0 mm 0 W/m2
23:59 -1 °C -8.4 °C 1017.8 hPa NE 2.4 km/h 8 km/h 57% 0 mm 0 W/m2
Hartford County Weather
Compliments of Weather Underground - 4 mb